sensor_id;sensor_type;location;lat;lon;timestamp;P1;durP1;ratioP1;P2;durP2;ratioP2
65769;SDS011;52512;47.650;8.578;2022-09-30T00:00:10;6.13;;;1.10;;
65769;SDS011;52512;47.650;8.578;2022-09-30T00:02:36;1.15;;;1.05;;
65769;SDS011;52512;47.650;8.578;2022-09-30T00:05:02;4.80;;;1.50;;
65769;SDS011;52512;47.650;8.578;2022-09-30T00:07:28;1.98;;;1.65;;
65769;SDS011;52512;47.650;8.578;2022-09-30T00:09:54;1.70;;;1.60;;
65769;SDS011;52512;47.650;8.578;2022-09-30T00:12:20;1.10;;;1.10;;
65769;SDS011;52512;47.650;8.578;2022-09-30T00:14:46;1.55;;;1.45;;
65769;SDS011;52512;47.650;8.578;2022-09-30T00:17:12;3.63;;;1.47;;
65769;SDS011;52512;47.650;8.578;2022-09-30T00:19:38;1.80;;;1.70;;
65769;SDS011;52512;47.650;8.578;2022-09-30T00:22:04;2.03;;;1.48;;
65769;SDS011;52512;47.650;8.578;2022-09-30T00:24:30;5.70;;;3.30;;
65769;SDS011;52512;47.650;8.578;2022-09-30T00:26:55;2.50;;;2.27;;
65769;SDS011;52512;47.650;8.578;2022-09-30T00:29:21;1.67;;;1.30;;
65769;SDS011;52512;47.650;8.578;2022-09-30T00:31:47;4.77;;;1.57;;
65769;SDS011;52512;47.650;8.578;2022-09-30T00:34:13;2.28;;;1.90;;
65769;SDS011;52512;47.650;8.578;2022-09-30T00:36:43;1.50;;;1.40;;
65769;SDS011;52512;47.650;8.578;2022-09-30T00:39:12;1.40;;;1.30;;
65769;SDS011;52512;47.650;8.578;2022-09-30T00:41:40;1.38;;;1.38;;
65769;SDS011;52512;47.650;8.578;2022-09-30T00:47:24;1.60;;;1.50;;
65769;SDS011;52512;47.650;8.578;2022-09-30T00:52:43;4.85;;;1.63;;
65769;SDS011;52512;47.650;8.578;2022-09-30T00:55:18;6.47;;;1.42;;
65769;SDS011;52512;47.650;8.578;2022-09-30T00:57:50;1.70;;;1.40;;
65769;SDS011;52512;47.650;8.578;2022-09-30T01:00:16;2.97;;;1.63;;
65769;SDS011;52512;47.650;8.578;2022-09-30T01:02:44;1.27;;;1.20;;
65769;SDS011;52512;47.650;8.578;2022-09-30T01:05:11;1.80;;;1.70;;
65769;SDS011;52512;47.650;8.578;2022-09-30T01:07:37;3.78;;;3.38;;
65769;SDS011;52512;47.650;8.578;2022-09-30T01:10:03;2.20;;;1.80;;
65769;SDS011;52512;47.650;8.578;2022-09-30T01:12:29;2.65;;;1.98;;
65769;SDS011;52512;47.650;8.578;2022-09-30T01:14:55;1.40;;;1.30;;
65769;SDS011;52512;47.650;8.578;2022-09-30T01:17:26;1.67;;;1.58;;
65769;SDS011;52512;47.650;8.578;2022-09-30T01:34:16;3.42;;;1.42;;
65769;SDS011;52512;47.650;8.578;2022-09-30T01:40:00;1.73;;;1.63;;
65769;SDS011;52512;47.650;8.578;2022-09-30T01:45:13;2.90;;;2.10;;
65769;SDS011;52512;47.650;8.578;2022-09-30T01:48:03;2.58;;;1.30;;
65769;SDS011;52512;47.650;8.578;2022-09-30T01:50:46;1.52;;;1.42;;
65769;SDS011;52512;47.650;8.578;2022-09-30T01:56:07;1.58;;;1.25;;
65769;SDS011;52512;47.650;8.578;2022-09-30T01:58:53;1.70;;;1.60;;
65769;SDS011;52512;47.650;8.578;2022-09-30T02:01:28;1.50;;;1.40;;
65769;SDS011;52512;47.650;8.578;2022-09-30T02:04:04;2.83;;;1.90;;
65769;SDS011;52512;47.650;8.578;2022-09-30T02:06:41;1.27;;;1.15;;
65769;SDS011;52512;47.650;8.578;2022-09-30T02:09:12;1.42;;;1.38;;
65769;SDS011;52512;47.650;8.578;2022-09-30T02:11:42;1.75;;;1.45;;
65769;SDS011;52512;47.650;8.578;2022-09-30T02:16:47;1.38;;;1.27;;
65769;SDS011;52512;47.650;8.578;2022-09-30T02:19:32;1.55;;;1.38;;
65769;SDS011;52512;47.650;8.578;2022-09-30T02:22:10;1.63;;;1.13;;
65769;SDS011;52512;47.650;8.578;2022-09-30T02:24:44;2.35;;;1.40;;
65769;SDS011;52512;47.650;8.578;2022-09-30T02:27:16;3.33;;;1.25;;
65769;SDS011;52512;47.650;8.578;2022-09-30T02:29:50;2.00;;;1.85;;
65769;SDS011;52512;47.650;8.578;2022-09-30T02:32:21;1.40;;;1.30;;
65769;SDS011;52512;47.650;8.578;2022-09-30T02:35:01;5.32;;;2.58;;
65769;SDS011;52512;47.650;8.578;2022-09-30T02:37:46;1.48;;;1.30;;
65769;SDS011;52512;47.650;8.578;2022-09-30T02:40:21;2.97;;;1.85;;
65769;SDS011;52512;47.650;8.578;2022-09-30T02:43:07;2.55;;;1.75;;
65769;SDS011;52512;47.650;8.578;2022-09-30T02:45:41;5.03;;;2.00;;
65769;SDS011;52512;47.650;8.578;2022-09-30T02:56:55;2.72;;;1.98;;
65769;SDS011;52512;47.650;8.578;2022-09-30T02:59:26;1.75;;;1.65;;
65769;SDS011;52512;47.650;8.578;2022-09-30T03:01:52;2.23;;;1.80;;
65769;SDS011;52512;47.650;8.578;2022-09-30T03:04:20;1.60;;;1.50;;
65769;SDS011;52512;47.650;8.578;2022-09-30T03:06:48;1.45;;;1.35;;
65769;SDS011;52512;47.650;8.578;2022-09-30T03:09:14;1.88;;;1.50;;
65769;SDS011;52512;47.650;8.578;2022-09-30T03:11:40;2.17;;;1.47;;
65769;SDS011;52512;47.650;8.578;2022-09-30T03:22:37;2.78;;;2.50;;
65769;SDS011;52512;47.650;8.578;2022-09-30T03:25:19;1.98;;;1.75;;
65769;SDS011;52512;47.650;8.578;2022-09-30T03:28:01;1.95;;;1.85;;
65769;SDS011;52512;47.650;8.578;2022-09-30T03:31:24;2.22;;;2.03;;
65769;SDS011;52512;47.650;8.578;2022-09-30T03:36:08;1.60;;;1.50;;
65769;SDS011;52512;47.650;8.578;2022-09-30T03:41:42;2.35;;;1.63;;
65769;SDS011;52512;47.650;8.578;2022-09-30T03:47:18;1.67;;;1.58;;
65769;SDS011;52512;47.650;8.578;2022-09-30T03:49:50;2.17;;;1.60;;
65769;SDS011;52512;47.650;8.578;2022-09-30T03:52:19;2.33;;;1.63;;
65769;SDS011;52512;47.650;8.578;2022-09-30T03:54:51;1.85;;;1.45;;
65769;SDS011;52512;47.650;8.578;2022-09-30T03:57:24;3.13;;;1.70;;
65769;SDS011;52512;47.650;8.578;2022-09-30T03:59:53;1.52;;;1.42;;
65769;SDS011;52512;47.650;8.578;2022-09-30T04:02:19;4.88;;;1.52;;
65769;SDS011;52512;47.650;8.578;2022-09-30T04:04:45;1.73;;;1.63;;
65769;SDS011;52512;47.650;8.578;2022-09-30T04:07:11;4.87;;;1.73;;
65769;SDS011;52512;47.650;8.578;2022-09-30T04:09:39;3.40;;;1.70;;
65769;SDS011;52512;47.650;8.578;2022-09-30T04:12:05;2.45;;;1.70;;
65769;SDS011;52512;47.650;8.578;2022-09-30T04:14:31;2.13;;;1.95;;
65769;SDS011;52512;47.650;8.578;2022-09-30T04:16:58;4.80;;;2.20;;
65769;SDS011;52512;47.650;8.578;2022-09-30T04:19:24;4.07;;;2.95;;
65769;SDS011;52512;47.650;8.578;2022-09-30T04:21:51;3.30;;;2.43;;
65769;SDS011;52512;47.650;8.578;2022-09-30T04:24:17;4.88;;;2.50;;
65769;SDS011;52512;47.650;8.578;2022-09-30T04:26:44;5.80;;;3.28;;
65769;SDS011;52512;47.650;8.578;2022-09-30T04:29:09;2.93;;;2.67;;
65769;SDS011;52512;47.650;8.578;2022-09-30T04:31:35;9.13;;;3.30;;
65769;SDS011;52512;47.650;8.578;2022-09-30T04:34:01;3.43;;;2.47;;
65769;SDS011;52512;47.650;8.578;2022-09-30T04:36:26;2.53;;;2.30;;
65769;SDS011;52512;47.650;8.578;2022-09-30T04:38:52;2.03;;;1.93;;
65769;SDS011;52512;47.650;8.578;2022-09-30T04:41:18;2.20;;;2.07;;
65769;SDS011;52512;47.650;8.578;2022-09-30T04:43:44;3.00;;;2.38;;
65769;SDS011;52512;47.650;8.578;2022-09-30T04:46:12;2.85;;;2.10;;
65769;SDS011;52512;47.650;8.578;2022-09-30T04:48:38;9.65;;;2.80;;
65769;SDS011;52512;47.650;8.578;2022-09-30T04:51:04;3.40;;;2.60;;
65769;SDS011;52512;47.650;8.578;2022-09-30T04:53:30;5.13;;;2.23;;
65769;SDS011;52512;47.650;8.578;2022-09-30T04:55:59;7.80;;;2.50;;
65769;SDS011;52512;47.650;8.578;2022-09-30T04:58:25;3.45;;;3.15;;
65769;SDS011;52512;47.650;8.578;2022-09-30T05:00:58;6.47;;;2.63;;
65769;SDS011;52512;47.650;8.578;2022-09-30T05:03:32;5.63;;;3.45;;
65769;SDS011;52512;47.650;8.578;2022-09-30T05:05:58;3.78;;;3.35;;
65769;SDS011;52512;47.650;8.578;2022-09-30T05:08:25;6.63;;;3.47;;
65769;SDS011;52512;47.650;8.578;2022-09-30T05:13:21;4.38;;;3.00;;
65769;SDS011;52512;47.650;8.578;2022-09-30T05:15:53;7.35;;;4.40;;
65769;SDS011;52512;47.650;8.578;2022-09-30T05:18:19;5.50;;;3.70;;
65769;SDS011;52512;47.650;8.578;2022-09-30T05:20:47;3.43;;;2.97;;
65769;SDS011;52512;47.650;8.578;2022-09-30T05:23:15;4.43;;;2.75;;
65769;SDS011;52512;47.650;8.578;2022-09-30T05:25:41;3.08;;;2.70;;
65769;SDS011;52512;47.650;8.578;2022-09-30T05:28:06;3.57;;;3.20;;
65769;SDS011;52512;47.650;8.578;2022-09-30T05:30:32;3.77;;;2.87;;
65769;SDS011;52512;47.650;8.578;2022-09-30T05:32:58;3.80;;;3.30;;
65769;SDS011;52512;47.650;8.578;2022-09-30T05:35:24;2.80;;;2.43;;
65769;SDS011;52512;47.650;8.578;2022-09-30T05:37:49;2.90;;;2.70;;
65769;SDS011;52512;47.650;8.578;2022-09-30T05:40:15;2.50;;;2.17;;
65769;SDS011;52512;47.650;8.578;2022-09-30T05:42:41;4.13;;;2.40;;
65769;SDS011;52512;47.650;8.578;2022-09-30T05:45:09;2.58;;;2.25;;
65769;SDS011;52512;47.650;8.578;2022-09-30T05:47:34;4.57;;;2.70;;
65769;SDS011;52512;47.650;8.578;2022-09-30T05:50:00;18.97;;;7.57;;
65769;SDS011;52512;47.650;8.578;2022-09-30T05:52:26;15.20;;;5.17;;
65769;SDS011;52512;47.650;8.578;2022-09-30T05:54:52;12.43;;;4.07;;
65769;SDS011;52512;47.650;8.578;2022-09-30T05:57:18;14.32;;;4.40;;
65769;SDS011;52512;47.650;8.578;2022-09-30T05:59:45;8.80;;;5.00;;
65769;SDS011;52512;47.650;8.578;2022-09-30T06:02:11;22.65;;;7.93;;
65769;SDS011;52512;47.650;8.578;2022-09-30T06:04:37;15.68;;;6.60;;
65769;SDS011;52512;47.650;8.578;2022-09-30T06:07:03;16.77;;;6.53;;
65769;SDS011;52512;47.650;8.578;2022-09-30T06:09:30;15.43;;;5.75;;
65769;SDS011;52512;47.650;8.578;2022-09-30T06:11:56;19.77;;;7.77;;
65769;SDS011;52512;47.650;8.578;2022-09-30T06:14:24;22.98;;;10.23;;
65769;SDS011;52512;47.650;8.578;2022-09-30T06:16:50;14.40;;;7.47;;
65769;SDS011;52512;47.650;8.578;2022-09-30T06:19:15;19.63;;;6.77;;
65769;SDS011;52512;47.650;8.578;2022-09-30T06:21:41;22.10;;;7.30;;
65769;SDS011;52512;47.650;8.578;2022-09-30T06:24:07;14.03;;;6.00;;
65769;SDS011;52512;47.650;8.578;2022-09-30T06:26:36;8.02;;;5.43;;
65769;SDS011;52512;47.650;8.578;2022-09-30T06:29:02;7.47;;;4.20;;
65769;SDS011;52512;47.650;8.578;2022-09-30T06:31:28;9.83;;;5.50;;
65769;SDS011;52512;47.650;8.578;2022-09-30T06:33:55;6.60;;;3.60;;
65769;SDS011;52512;47.650;8.578;2022-09-30T06:36:21;9.77;;;3.77;;
65769;SDS011;52512;47.650;8.578;2022-09-30T06:38:48;6.60;;;3.75;;
65769;SDS011;52512;47.650;8.578;2022-09-30T06:41:18;7.28;;;3.80;;
65769;SDS011;52512;47.650;8.578;2022-09-30T06:43:44;3.03;;;2.70;;
65769;SDS011;52512;47.650;8.578;2022-09-30T06:46:10;4.80;;;2.80;;
65769;SDS011;52512;47.650;8.578;2022-09-30T06:48:36;2.65;;;2.45;;
65769;SDS011;52512;47.650;8.578;2022-09-30T06:51:03;2.33;;;2.13;;
65769;SDS011;52512;47.650;8.578;2022-09-30T06:53:28;3.17;;;2.87;;
65769;SDS011;52512;47.650;8.578;2022-09-30T06:55:55;2.33;;;2.23;;
65769;SDS011;52512;47.650;8.578;2022-09-30T06:58:21;2.78;;;2.10;;
65769;SDS011;52512;47.650;8.578;2022-09-30T07:01:02;2.45;;;2.25;;
65769;SDS011;52512;47.650;8.578;2022-09-30T07:03:30;4.18;;;2.25;;
65769;SDS011;52512;47.650;8.578;2022-09-30T07:05:58;2.42;;;2.22;;
65769;SDS011;52512;47.650;8.578;2022-09-30T07:08:26;2.10;;;2.00;;
65769;SDS011;52512;47.650;8.578;2022-09-30T07:11:00;2.53;;;2.33;;
65769;SDS011;52512;47.650;8.578;2022-09-30T07:13:28;2.70;;;2.50;;
65769;SDS011;52512;47.650;8.578;2022-09-30T07:15:54;2.23;;;1.90;;
65769;SDS011;52512;47.650;8.578;2022-09-30T07:18:21;2.05;;;1.90;;
65769;SDS011;52512;47.650;8.578;2022-09-30T07:20:48;2.47;;;2.28;;
65769;SDS011;52512;47.650;8.578;2022-09-30T07:23:18;2.30;;;2.10;;
65769;SDS011;52512;47.650;8.578;2022-09-30T07:26:03;7.85;;;2.90;;
65769;SDS011;52512;47.650;8.578;2022-09-30T07:28:31;9.15;;;1.80;;
65769;SDS011;52512;47.650;8.578;2022-09-30T07:30:59;2.97;;;2.47;;
65769;SDS011;52512;47.650;8.578;2022-09-30T07:33:32;6.85;;;3.03;;
65769;SDS011;52512;47.650;8.578;2022-09-30T07:35:59;2.75;;;2.55;;
65769;SDS011;52512;47.650;8.578;2022-09-30T07:38:28;2.83;;;2.50;;
65769;SDS011;52512;47.650;8.578;2022-09-30T07:40:56;2.50;;;2.30;;
65769;SDS011;52512;47.650;8.578;2022-09-30T07:43:25;2.78;;;2.35;;
65769;SDS011;52512;47.650;8.578;2022-09-30T07:46:01;3.10;;;2.80;;
65769;SDS011;52512;47.650;8.578;2022-09-30T07:48:35;2.38;;;2.17;;
65769;SDS011;52512;47.650;8.578;2022-09-30T07:51:12;4.30;;;3.15;;
65769;SDS011;52512;47.650;8.578;2022-09-30T07:53:50;3.35;;;2.60;;
65769;SDS011;52512;47.650;8.578;2022-09-30T07:56:21;3.45;;;3.15;;
65769;SDS011;52512;47.650;8.578;2022-09-30T07:58:48;7.93;;;4.07;;
65769;SDS011;52512;47.650;8.578;2022-09-30T08:01:19;6.57;;;4.63;;
65769;SDS011;52512;47.650;8.578;2022-09-30T08:03:45;4.50;;;3.80;;
65769;SDS011;52512;47.650;8.578;2022-09-30T08:06:12;3.30;;;3.00;;
65769;SDS011;52512;47.650;8.578;2022-09-30T08:08:39;7.55;;;3.70;;
65769;SDS011;52512;47.650;8.578;2022-09-30T08:11:05;4.90;;;3.80;;
65769;SDS011;52512;47.650;8.578;2022-09-30T08:13:31;4.32;;;2.67;;
65769;SDS011;52512;47.650;8.578;2022-09-30T08:15:57;5.68;;;3.10;;
65769;SDS011;52512;47.650;8.578;2022-09-30T08:18:23;5.37;;;3.40;;
65769;SDS011;52512;47.650;8.578;2022-09-30T08:20:49;6.55;;;3.50;;
65769;SDS011;52512;47.650;8.578;2022-09-30T08:23:15;12.15;;;3.33;;
65769;SDS011;52512;47.650;8.578;2022-09-30T08:25:41;5.13;;;2.80;;
65769;SDS011;52512;47.650;8.578;2022-09-30T08:28:07;5.90;;;2.80;;
65769;SDS011;52512;47.650;8.578;2022-09-30T08:30:36;3.13;;;2.53;;
65769;SDS011;52512;47.650;8.578;2022-09-30T08:33:02;8.32;;;3.78;;
65769;SDS011;52512;47.650;8.578;2022-09-30T08:35:28;14.18;;;3.80;;
65769;SDS011;52512;47.650;8.578;2022-09-30T08:37:54;6.23;;;3.40;;
65769;SDS011;52512;47.650;8.578;2022-09-30T08:40:26;7.30;;;3.50;;
65769;SDS011;52512;47.650;8.578;2022-09-30T08:51:22;12.80;;;3.03;;
65769;SDS011;52512;47.650;8.578;2022-09-30T08:54:23;8.95;;;4.13;;
65769;SDS011;52512;47.650;8.578;2022-09-30T08:56:53;5.25;;;3.45;;
65769;SDS011;52512;47.650;8.578;2022-09-30T08:59:33;5.37;;;3.37;;
65769;SDS011;52512;47.650;8.578;2022-09-30T09:04:57;3.75;;;3.25;;
65769;SDS011;52512;47.650;8.578;2022-09-30T09:23:52;4.80;;;2.38;;
65769;SDS011;52512;47.650;8.578;2022-09-30T09:26:21;4.60;;;2.95;;
65769;SDS011;52512;47.650;8.578;2022-09-30T09:31:52;3.28;;;3.03;;
65769;SDS011;52512;47.650;8.578;2022-09-30T09:34:19;3.53;;;2.88;;
65769;SDS011;52512;47.650;8.578;2022-09-30T09:47:53;5.20;;;2.60;;
65769;SDS011;52512;47.650;8.578;2022-09-30T09:50:26;3.85;;;3.05;;
65769;SDS011;52512;47.650;8.578;2022-09-30T09:55:43;4.88;;;3.65;;
65769;SDS011;52512;47.650;8.578;2022-09-30T09:58:10;4.63;;;3.30;;
65769;SDS011;52512;47.650;8.578;2022-09-30T10:00:38;6.68;;;2.78;;
65769;SDS011;52512;47.650;8.578;2022-09-30T10:03:22;4.78;;;3.75;;
65769;SDS011;52512;47.650;8.578;2022-09-30T10:08:28;2.50;;;2.30;;
65769;SDS011;52512;47.650;8.578;2022-09-30T10:10:57;3.75;;;2.75;;
65769;SDS011;52512;47.650;8.578;2022-09-30T10:15:54;2.95;;;2.50;;
65769;SDS011;52512;47.650;8.578;2022-09-30T10:21:01;2.83;;;2.55;;
65769;SDS011;52512;47.650;8.578;2022-09-30T10:23:31;2.30;;;2.10;;
65769;SDS011;52512;47.650;8.578;2022-09-30T10:28:34;2.80;;;2.50;;
65769;SDS011;52512;47.650;8.578;2022-09-30T10:33:50;2.42;;;2.20;;
65769;SDS011;52512;47.650;8.578;2022-09-30T10:36:28;4.85;;;2.20;;
65769;SDS011;52512;47.650;8.578;2022-09-30T10:38:58;6.95;;;2.05;;
65769;SDS011;52512;47.650;8.578;2022-09-30T10:41:28;4.30;;;2.47;;
65769;SDS011;52512;47.650;8.578;2022-09-30T10:43:56;3.75;;;2.67;;
65769;SDS011;52512;47.650;8.578;2022-09-30T10:46:28;2.53;;;2.33;;
65769;SDS011;52512;47.650;8.578;2022-09-30T10:49:00;2.42;;;2.22;;
65769;SDS011;52512;47.650;8.578;2022-09-30T10:51:43;2.75;;;2.35;;
65769;SDS011;52512;47.650;8.578;2022-09-30T10:54:10;2.17;;;1.97;;
65769;SDS011;52512;47.650;8.578;2022-09-30T10:57:13;2.45;;;2.25;;
65769;SDS011;52512;47.650;8.578;2022-09-30T10:59:49;14.93;;;1.60;;
65769;SDS011;52512;47.650;8.578;2022-09-30T11:05:14;1.83;;;1.73;;
65769;SDS011;52512;47.650;8.578;2022-09-30T11:14:10;1.77;;;1.67;;
65769;SDS011;52512;47.650;8.578;2022-09-30T11:17:21;1.37;;;1.37;;
65769;SDS011;52512;47.650;8.578;2022-09-30T11:19:53;1.57;;;1.10;;
65769;SDS011;52512;47.650;8.578;2022-09-30T11:44:41;1.37;;;1.27;;
65769;SDS011;52512;47.650;8.578;2022-09-30T11:47:22;1.57;;;1.47;;
65769;SDS011;52512;47.650;8.578;2022-09-30T11:53:05;1.43;;;1.27;;
65769;SDS011;52512;47.650;8.578;2022-09-30T11:58:17;0.90;;;0.90;;
65769;SDS011;52512;47.650;8.578;2022-09-30T12:00:48;1.13;;;1.07;;
65769;SDS011;52512;47.650;8.578;2022-09-30T12:03:42;0.80;;;0.80;;
65769;SDS011;52512;47.650;8.578;2022-09-30T12:06:23;1.00;;;1.00;;
65769;SDS011;52512;47.650;8.578;2022-09-30T12:09:02;1.20;;;1.10;;
65769;SDS011;52512;47.650;8.578;2022-09-30T12:11:40;1.10;;;0.90;;
65769;SDS011;52512;47.650;8.578;2022-09-30T12:14:15;1.13;;;1.03;;
65769;SDS011;52512;47.650;8.578;2022-09-30T12:16:51;1.30;;;1.20;;
65769;SDS011;52512;47.650;8.578;2022-09-30T12:19:37;2.07;;;1.40;;
65769;SDS011;52512;47.650;8.578;2022-09-30T12:24:59;1.20;;;1.20;;
65769;SDS011;52512;47.650;8.578;2022-09-30T12:27:28;3.63;;;1.33;;
65769;SDS011;52512;47.650;8.578;2022-09-30T12:30:04;1.13;;;1.10;;
65769;SDS011;52512;47.650;8.578;2022-09-30T12:41:40;1.37;;;1.10;;
65769;SDS011;52512;47.650;8.578;2022-09-30T12:47:11;0.90;;;0.90;;
65769;SDS011;52512;47.650;8.578;2022-09-30T12:49:46;5.37;;;1.60;;
65769;SDS011;52512;47.650;8.578;2022-09-30T12:52:13;2.20;;;1.20;;
65769;SDS011;52512;47.650;8.578;2022-09-30T12:54:52;3.60;;;1.97;;
65769;SDS011;52512;47.650;8.578;2022-09-30T12:57:23;2.13;;;1.77;;
65769;SDS011;52512;47.650;8.578;2022-09-30T12:59:56;1.73;;;1.20;;
65769;SDS011;52512;47.650;8.578;2022-09-30T13:02:30;2.20;;;1.47;;
65769;SDS011;52512;47.650;8.578;2022-09-30T13:10:32;1.73;;;1.30;;
65769;SDS011;52512;47.650;8.578;2022-09-30T13:15:58;1.03;;;1.03;;
65769;SDS011;52512;47.650;8.578;2022-09-30T13:23:42;1.10;;;1.10;;
65769;SDS011;52512;47.650;8.578;2022-09-30T13:32:00;2.60;;;2.50;;
65769;SDS011;52512;47.650;8.578;2022-09-30T13:34:23;1.37;;;1.27;;
65769;SDS011;52512;47.650;8.578;2022-09-30T13:47:26;1.10;;;1.00;;
65769;SDS011;52512;47.650;8.578;2022-09-30T13:49:56;1.87;;;1.30;;
65769;SDS011;52512;47.650;8.578;2022-09-30T13:52:28;0.90;;;0.90;;
65769;SDS011;52512;47.650;8.578;2022-09-30T13:54:59;1.37;;;1.00;;
65769;SDS011;52512;47.650;8.578;2022-09-30T13:57:36;1.43;;;1.00;;
65769;SDS011;52512;47.650;8.578;2022-09-30T14:00:10;1.33;;;1.13;;
65769;SDS011;52512;47.650;8.578;2022-09-30T14:08:39;7.53;;;1.07;;
65769;SDS011;52512;47.650;8.578;2022-09-30T14:17:04;4.37;;;1.70;;
65769;SDS011;52512;47.650;8.578;2022-09-30T14:19:57;1.50;;;1.43;;
65769;SDS011;52512;47.650;8.578;2022-09-30T14:22:25;1.43;;;1.33;;
65769;SDS011;52512;47.650;8.578;2022-09-30T14:24:54;1.17;;;1.07;;
65769;SDS011;52512;47.650;8.578;2022-09-30T14:27:38;3.23;;;1.30;;
65769;SDS011;52512;47.650;8.578;2022-09-30T14:30:40;1.37;;;1.20;;
65769;SDS011;52512;47.650;8.578;2022-09-30T14:33:27;2.17;;;1.40;;
65769;SDS011;52512;47.650;8.578;2022-09-30T14:35:55;2.00;;;1.27;;
65769;SDS011;52512;47.650;8.578;2022-09-30T14:38:26;1.73;;;1.50;;
65769;SDS011;52512;47.650;8.578;2022-09-30T14:40:55;1.60;;;1.33;;
65769;SDS011;52512;47.650;8.578;2022-09-30T14:43:25;1.70;;;1.60;;
65769;SDS011;52512;47.650;8.578;2022-09-30T14:45:59;2.17;;;1.27;;
65769;SDS011;52512;47.650;8.578;2022-09-30T14:48:33;26.23;;;9.17;;
65769;SDS011;52512;47.650;8.578;2022-09-30T14:51:06;1.63;;;1.40;;
65769;SDS011;52512;47.650;8.578;2022-09-30T14:53:38;1.67;;;1.57;;
65769;SDS011;52512;47.650;8.578;2022-09-30T14:56:18;2.70;;;1.90;;
65769;SDS011;52512;47.650;8.578;2022-09-30T14:58:46;2.83;;;1.60;;
65769;SDS011;52512;47.650;8.578;2022-09-30T15:01:16;1.83;;;1.50;;
65769;SDS011;52512;47.650;8.578;2022-09-30T15:04:03;1.10;;;1.10;;
65769;SDS011;52512;47.650;8.578;2022-09-30T15:06:35;1.20;;;1.10;;
65769;SDS011;52512;47.650;8.578;2022-09-30T15:09:03;1.30;;;1.20;;
65769;SDS011;52512;47.650;8.578;2022-09-30T15:11:32;4.10;;;1.37;;
65769;SDS011;52512;47.650;8.578;2022-09-30T15:14:00;1.30;;;1.20;;
65769;SDS011;52512;47.650;8.578;2022-09-30T15:16:33;1.33;;;1.20;;
65769;SDS011;52512;47.650;8.578;2022-09-30T15:19:14;3.07;;;1.40;;
65769;SDS011;52512;47.650;8.578;2022-09-30T15:21:52;1.33;;;1.23;;
65769;SDS011;52512;47.650;8.578;2022-09-30T15:24:20;1.87;;;1.60;;
65769;SDS011;52512;47.650;8.578;2022-09-30T15:26:48;1.80;;;1.00;;
65769;SDS011;52512;47.650;8.578;2022-09-30T15:29:16;1.67;;;1.00;;
65769;SDS011;52512;47.650;8.578;2022-09-30T15:31:45;1.30;;;1.20;;
65769;SDS011;52512;47.650;8.578;2022-09-30T15:34:17;1.30;;;1.30;;
65769;SDS011;52512;47.650;8.578;2022-09-30T15:36:45;6.03;;;1.40;;
65769;SDS011;52512;47.650;8.578;2022-09-30T15:39:25;1.43;;;1.33;;
65769;SDS011;52512;47.650;8.578;2022-09-30T15:42:13;2.73;;;1.20;;
65769;SDS011;52512;47.650;8.578;2022-09-30T15:44:55;1.97;;;1.43;;
65769;SDS011;52512;47.650;8.578;2022-09-30T15:47:23;2.50;;;1.40;;
65769;SDS011;52512;47.650;8.578;2022-09-30T15:49:51;0.90;;;0.90;;
65769;SDS011;52512;47.650;8.578;2022-09-30T15:52:25;1.13;;;0.80;;
65769;SDS011;52512;47.650;8.578;2022-09-30T15:54:52;1.23;;;1.17;;
65769;SDS011;52512;47.650;8.578;2022-09-30T16:00:34;1.30;;;1.20;;
65769;SDS011;52512;47.650;8.578;2022-09-30T16:03:18;1.00;;;1.00;;
65769;SDS011;52512;47.650;8.578;2022-09-30T16:05:51;1.10;;;1.10;;
65769;SDS011;52512;47.650;8.578;2022-09-30T16:08:25;1.33;;;1.23;;
65769;SDS011;52512;47.650;8.578;2022-09-30T16:10:53;1.17;;;1.07;;
65769;SDS011;52512;47.650;8.578;2022-09-30T16:13:23;1.37;;;1.17;;
65769;SDS011;52512;47.650;8.578;2022-09-30T16:15:52;1.10;;;1.00;;
65769;SDS011;52512;47.650;8.578;2022-09-30T16:18:24;1.00;;;1.00;;
65769;SDS011;52512;47.650;8.578;2022-09-30T16:21:01;1.57;;;0.90;;
65769;SDS011;52512;47.650;8.578;2022-09-30T16:23:38;0.90;;;0.90;;
65769;SDS011;52512;47.650;8.578;2022-09-30T16:26:20;1.10;;;0.90;;
65769;SDS011;52512;47.650;8.578;2022-09-30T16:28:51;1.73;;;1.07;;
65769;SDS011;52512;47.650;8.578;2022-09-30T16:31:17;1.20;;;0.93;;
65769;SDS011;52512;47.650;8.578;2022-09-30T16:33:44;0.80;;;0.80;;
65769;SDS011;52512;47.650;8.578;2022-09-30T16:36:10;1.57;;;1.20;;
65769;SDS011;52512;47.650;8.578;2022-09-30T16:38:37;1.13;;;1.10;;
65769;SDS011;52512;47.650;8.578;2022-09-30T16:41:02;4.50;;;1.20;;
65769;SDS011;52512;47.650;8.578;2022-09-30T16:43:29;1.00;;;0.90;;
65769;SDS011;52512;47.650;8.578;2022-09-30T16:45:56;1.30;;;1.20;;
65769;SDS011;52512;47.650;8.578;2022-09-30T16:48:24;0.93;;;0.93;;
65769;SDS011;52512;47.650;8.578;2022-09-30T16:50:56;0.97;;;0.90;;
65769;SDS011;52512;47.650;8.578;2022-09-30T16:53:27;5.40;;;2.30;;
65769;SDS011;52512;47.650;8.578;2022-09-30T16:55:53;2.90;;;1.77;;
65769;SDS011;52512;47.650;8.578;2022-09-30T16:58:20;3.00;;;2.80;;
65769;SDS011;52512;47.650;8.578;2022-09-30T17:00:46;9.47;;;1.70;;
65769;SDS011;52512;47.650;8.578;2022-09-30T17:03:12;4.93;;;2.10;;
65769;SDS011;52512;47.650;8.578;2022-09-30T17:05:43;3.13;;;1.57;;
65769;SDS011;52512;47.650;8.578;2022-09-30T17:08:10;3.13;;;2.10;;
65769;SDS011;52512;47.650;8.578;2022-09-30T17:10:38;2.10;;;1.90;;
65769;SDS011;52512;47.650;8.578;2022-09-30T17:13:05;5.87;;;2.70;;
65769;SDS011;52512;47.650;8.578;2022-09-30T17:15:32;2.50;;;2.30;;
65769;SDS011;52512;47.650;8.578;2022-09-30T17:18:02;3.83;;;2.27;;
65769;SDS011;52512;47.650;8.578;2022-09-30T17:20:31;2.00;;;1.80;;
65769;SDS011;52512;47.650;8.578;2022-09-30T17:22:57;2.17;;;1.97;;
65769;SDS011;52512;47.650;8.578;2022-09-30T17:25:22;3.70;;;2.07;;
65769;SDS011;52512;47.650;8.578;2022-09-30T17:27:48;2.67;;;2.33;;
65769;SDS011;52512;47.650;8.578;2022-09-30T17:30:14;7.10;;;2.60;;
65769;SDS011;52512;47.650;8.578;2022-09-30T17:32:40;6.10;;;2.80;;
65769;SDS011;52512;47.650;8.578;2022-09-30T17:35:09;3.80;;;3.50;;
65769;SDS011;52512;47.650;8.578;2022-09-30T17:37:35;2.23;;;2.03;;
65769;SDS011;52512;47.650;8.578;2022-09-30T17:40:03;6.10;;;3.80;;
65769;SDS011;52512;47.650;8.578;2022-09-30T17:42:49;4.30;;;2.73;;
65769;SDS011;52512;47.650;8.578;2022-09-30T17:45:34;5.80;;;2.70;;
65769;SDS011;52512;47.650;8.578;2022-09-30T17:48:05;2.43;;;2.23;;
65769;SDS011;52512;47.650;8.578;2022-09-30T17:50:33;3.70;;;2.53;;
65769;SDS011;52512;47.650;8.578;2022-09-30T17:53:00;11.20;;;4.30;;
65769;SDS011;52512;47.650;8.578;2022-09-30T17:55:26;14.83;;;6.90;;
65769;SDS011;52512;47.650;8.578;2022-09-30T17:57:53;17.63;;;3.60;;
65769;SDS011;52512;47.650;8.578;2022-09-30T18:00:20;3.30;;;2.23;;
65769;SDS011;52512;47.650;8.578;2022-09-30T18:02:46;4.93;;;2.60;;
65769;SDS011;52512;47.650;8.578;2022-09-30T18:05:12;3.27;;;2.43;;
65769;SDS011;52512;47.650;8.578;2022-09-30T18:07:39;7.20;;;4.07;;
65769;SDS011;52512;47.650;8.578;2022-09-30T18:10:05;12.40;;;2.90;;
65769;SDS011;52512;47.650;8.578;2022-09-30T18:12:32;3.63;;;2.57;;
65769;SDS011;52512;47.650;8.578;2022-09-30T18:14:58;4.13;;;3.75;;
65769;SDS011;52512;47.650;8.578;2022-09-30T18:17:24;3.47;;;3.00;;
65769;SDS011;52512;47.650;8.578;2022-09-30T18:19:51;4.13;;;3.10;;
65769;SDS011;52512;47.650;8.578;2022-09-30T18:22:17;2.33;;;2.13;;
65769;SDS011;52512;47.650;8.578;2022-09-30T18:24:43;2.50;;;1.50;;
65769;SDS011;52512;47.650;8.578;2022-09-30T18:27:27;1.50;;;1.40;;
65769;SDS011;52512;47.650;8.578;2022-09-30T18:29:58;2.10;;;1.83;;
65769;SDS011;52512;47.650;8.578;2022-09-30T18:32:28;3.35;;;2.97;;
65769;SDS011;52512;47.650;8.578;2022-09-30T18:34:55;3.45;;;2.10;;
65769;SDS011;52512;47.650;8.578;2022-09-30T18:37:21;10.30;;;2.60;;
65769;SDS011;52512;47.650;8.578;2022-09-30T18:39:47;2.13;;;1.80;;
65769;SDS011;52512;47.650;8.578;2022-09-30T18:42:13;2.27;;;2.07;;